Time;durP1;ratioP1;P1;durP2;ratioP2;P2;SDS_P1;SDS_P2;PMS_P1;PMS_P2;Temp;Humidity;BMP_temperature;BMP_pressure;BME280_temperature;BME280_humidity;BME280_pressure;Samples;Min_cycle;Max_cycle;Signal;HPM_P1;HPM_P2
2022/11/20 00:06:05;;;;;;;3.70;1.40;;;-1.20;92.00;;;;;;5037783;28;20049;-84
2022/11/20 00:08:35;;;;;;;2.77;1.10;;;-1.20;92.00;;;;;;5017142;28;20046;-83
2022/11/20 00:11:09;;;;;;;2.97;1.07;;;-1.30;92.00;;;;;;5060944;28;20070;-83
2022/11/20 00:13:50;;;;;;;3.70;1.25;;;-1.30;92.00;;;;;;5103170;28;20059;-83
2022/11/20 00:16:29;;;;;;;3.40;1.17;;;-1.30;92.10;;;;;;5082214;28;20131;-83
2022/11/20 00:19:07;;;;;;;;;;;-1.40;92.10;;;;;;5089600;28;20044;-83
2022/11/20 00:21:55;;;;;;;3.27;1.00;;;-1.40;92.20;;;;;;5095859;28;19951;-83
2022/11/20 00:24:50;;;;;;;3.03;1.20;;;-1.40;92.20;;;;;;5084707;28;20105;-83
2022/11/20 00:27:28;;;;;;;2.25;0.63;;;-1.50;92.20;;;;;;5105190;28;20071;-84
2022/11/20 00:30:06;;;;;;;3.27;1.03;;;-1.50;92.30;;;;;;5080487;28;20047;-83
2022/11/20 00:33:14;;;;;;;2.90;1.13;;;-1.50;92.30;;;;;;5065969;28;20052;-83
2022/11/20 00:35:47;;;;;;;4.00;1.30;;;-1.50;92.30;;;;;;5088835;28;20598;-83
2022/11/20 00:38:44;;;;;;;3.73;1.10;;;-1.50;92.40;;;;;;5075222;28;20052;-84
2022/11/20 00:41:38;;;;;;;3.67;1.43;;;-1.50;92.40;;;;;;5074725;28;20055;-82
2022/11/20 00:44:16;;;;;;;3.23;1.00;;;-1.50;92.40;;;;;;5105365;28;20206;-84
2022/11/20 00:46:57;;;;;;;2.77;1.03;;;-1.50;92.40;;;;;;5084389;28;20043;-83
2022/11/20 00:49:48;;;;;;;3.17;1.13;;;-1.50;92.40;;;;;;5094379;28;20124;-83
2022/11/20 00:52:23;;;;;;;2.57;1.00;;;-1.60;92.40;;;;;;5107782;28;20063;-83
2022/11/20 00:55:08;;;;;;;2.70;1.10;;;-1.60;92.40;;;;;;5077758;28;20068;-83
2022/11/20 00:57:40;;;;;;;3.77;1.57;;;-1.60;92.40;;;;;;5092975;28;20040;-84
2022/11/20 01:00:09;;;;;;;4.40;1.30;;;-1.60;92.50;;;;;;5100465;28;20047;-84
2022/11/20 01:02:38;;;;;;;2.80;1.00;;;-1.60;92.50;;;;;;5081241;28;20054;-84
2022/11/20 01:05:13;;;;;;;2.38;1.23;;;-1.60;92.50;;;;;;5089269;28;20040;-84
2022/11/20 01:07:44;;;;;;;3.90;2.10;;;-1.60;92.60;;;;;;5094905;28;20039;-83
2022/11/20 01:10:15;;;;;;;3.07;1.30;;;-1.60;92.60;;;;;;5086949;28;20039;-84
2022/11/20 01:15:54;;;;;;;4.63;1.50;;;-1.60;92.50;;;;;;5108295;28;20040;-83
2022/11/20 01:18:27;;;;;;;3.63;1.17;;;-1.60;92.50;;;;;;5091684;28;20059;-83
2022/11/20 01:21:07;;;;;;;3.17;1.30;;;-1.60;92.50;;;;;;5092054;28;20040;-83
2022/11/20 01:23:37;;;;;;;4.23;1.33;;;-1.60;92.50;;;;;;5101746;28;20044;-83
2022/11/20 01:26:06;;;;;;;3.37;1.00;;;-1.60;92.50;;;;;;5096733;28;20056;-84
2022/11/20 01:28:39;;;;;;;3.40;1.25;;;-1.60;92.50;;;;;;5109553;28;20048;-84
2022/11/20 01:31:23;;;;;;;2.43;1.03;;;-1.60;92.50;;;;;;5093990;28;20048;-83
2022/11/20 01:34:18;;;;;;;3.37;1.30;;;-1.60;92.50;;;;;;5076563;28;20120;-84
2022/11/20 01:36:56;;;;;;;2.47;1.10;;;-1.60;92.50;;;;;;5078305;28;20048;-84
2022/11/20 01:39:26;;;;;;;4.07;1.30;;;-1.60;92.50;;;;;;5085494;28;20048;-83
2022/11/20 01:44:59;;;;;;;3.53;1.43;;;-1.60;92.50;;;;;;5091590;28;20464;-83
2022/11/20 01:47:43;;;;;;;3.27;2.17;;;-1.60;92.50;;;;;;5081280;28;20491;-84
2022/11/20 01:50:19;;;;;;;3.53;1.47;;;-1.50;92.50;;;;;;5092131;28;20047;-83
2022/11/20 01:53:07;;;;;;;3.30;0.90;;;-1.50;92.50;;;;;;5100041;28;20056;-83
2022/11/20 01:55:51;;;;;;;4.17;1.60;;;-1.50;92.40;;;;;;5111808;28;20048;-83
2022/11/20 01:58:35;;;;;;;3.80;1.63;;;-1.50;92.40;;;;;;5089522;28;20052;-84
2022/11/20 02:01:05;;;;;;;3.73;1.23;;;-1.50;92.40;;;;;;5102880;28;20059;-84
2022/11/20 02:03:41;;;;;;;2.97;1.30;;;-1.60;92.50;;;;;;5088630;28;20479;-85
2022/11/20 02:06:25;;;;;;;3.67;1.50;;;-1.60;92.50;;;;;;5082733;28;20047;-84
2022/11/20 02:08:54;;;;;;;2.60;1.27;;;-1.60;92.50;;;;;;5085127;28;20044;-84
2022/11/20 02:11:24;;;;;;;4.03;1.53;;;-1.60;92.50;;;;;;5080822;28;20040;-84
2022/11/20 02:14:03;;;;;;;3.47;1.17;;;-1.60;92.50;;;;;;5085981;28;20109;-83
2022/11/20 02:16:57;;;;;;;3.57;1.33;;;-1.60;92.50;;;;;;5078622;28;20040;-84
2022/11/20 02:19:33;;;;;;;3.90;1.17;;;-1.70;92.60;;;;;;5095092;28;20044;-85
2022/11/20 02:22:48;;;;;;;3.47;1.20;;;-1.70;92.60;;;;;;5088493;28;20043;-84
2022/11/20 02:25:32;;;;;;;3.97;1.20;;;-1.70;92.60;;;;;;5047248;28;20521;-84
2022/11/20 02:28:07;;;;;;;4.73;1.60;;;-1.70;92.60;;;;;;5090366;28;20039;-84
2022/11/20 02:30:39;;;;;;;3.33;1.20;;;-1.80;92.60;;;;;;5088203;28;20044;-84
2022/11/20 02:33:25;;;;;;;3.37;1.70;;;-1.70;92.90;;;;;;5089475;28;20048;-84
2022/11/20 02:36:11;;;;;;;3.72;1.77;;;-1.60;92.40;;;;;;5095931;28;20040;-84
2022/11/20 02:38:43;;;;;;;4.17;1.73;;;-1.60;92.20;;;;;;5066053;28;20044;-84
2022/11/20 02:41:16;;;;;;;4.80;1.73;;;-1.60;92.00;;;;;;5084495;28;20051;-84
2022/11/20 02:44:14;;;;;;;3.70;1.30;;;-1.60;92.10;;;;;;5099063;28;20064;-84
2022/11/20 02:46:53;;;;;;;3.17;1.23;;;-1.70;92.30;;;;;;5089940;28;20428;-84
2022/11/20 02:50:00;;;;;;;2.77;0.90;;;-1.80;92.40;;;;;;5100592;28;20059;-83
2022/11/20 02:52:53;;;;;;;2.40;0.87;;;-1.90;92.80;;;;;;5066593;28;20793;-84
2022/11/20 02:58:30;;;;;;;1.87;0.90;;;-1.90;92.70;;;;;;5096418;28;20504;-84
2022/11/20 03:01:08;;;;;;;3.60;1.27;;;-2.00;92.80;;;;;;5081205;28;20043;-83
2022/11/20 03:03:58;;;;;;;2.43;0.93;;;-2.10;92.70;;;;;;5071134;28;20040;-84
2022/11/20 03:06:43;;;;;;;2.97;1.10;;;-2.00;92.80;;;;;;5076663;28;20047;-83
2022/11/20 03:09:27;;;;;;;3.20;1.27;;;-2.10;92.80;;;;;;5089126;28;20044;-84
2022/11/20 03:12:10;;;;;;;2.50;0.97;;;-2.10;92.90;;;;;;5076383;28;20093;-84
2022/11/20 03:14:47;;;;;;;2.60;0.90;;;-2.10;92.90;;;;;;5095981;28;20480;-84
2022/11/20 03:17:24;;;;;;;2.57;0.90;;;-2.20;92.90;;;;;;5094319;28;20043;-84
2022/11/20 03:20:00;;;;;;;3.70;1.00;;;-2.20;92.90;;;;;;5094697;28;20150;-84
2022/11/20 03:22:41;;;;;;;2.57;0.97;;;-2.20;92.90;;;;;;5086692;28;20131;-83
2022/11/20 03:25:19;;;;;;;3.73;1.20;;;-2.20;93.00;;;;;;5086048;28;20707;-84
2022/11/20 03:27:53;;;;;;;3.30;1.20;;;-2.20;93.00;;;;;;5089258;28;20055;-84
2022/11/20 03:30:26;;;;;;;3.73;1.50;;;-2.20;93.00;;;;;;5106039;28;20079;-84
2022/11/20 03:33:30;;;;;;;3.73;1.20;;;-2.20;93.00;;;;;;5088795;28;20052;-83
2022/11/20 03:36:05;;;;;;;3.77;1.33;;;-2.30;93.00;;;;;;5068937;28;20552;-84
2022/11/20 03:39:00;;;;;;;3.57;1.30;;;-2.30;93.00;;;;;;5093044;28;20048;-85
2022/11/20 03:41:33;;;;;;;2.97;1.20;;;-2.30;93.00;;;;;;5070049;28;20078;-85
2022/11/20 03:44:23;;;;;;;3.00;1.30;;;-2.30;93.00;;;;;;5097104;28;20043;-84
2022/11/20 03:47:06;;;;;;;2.93;1.33;;;-2.40;93.00;;;;;;5064175;28;20499;-84
2022/11/20 03:49:44;;;;;;;3.33;1.20;;;-2.30;93.20;;;;;;5047380;28;20131;-84
2022/11/20 03:52:38;;;;;;;4.27;1.37;;;-2.30;93.10;;;;;;5063910;28;20447;-84
2022/11/20 03:55:54;;;;;;;3.90;1.37;;;-2.40;93.10;;;;;;5090966;28;20043;-84
2022/11/20 03:58:39;;;;;;;3.90;1.10;;;-2.40;93.10;;;;;;5093488;28;20046;-85
2022/11/20 04:01:38;;;;;;;;;;;;;;;;;;;;;
2022/11/20 04:04:44;;;;;;;2.37;1.07;;;-2.40;93.10;;;;;;5085395;28;20047;-84
2022/11/20 04:07:42;;;;;;;3.63;1.20;;;-2.40;93.20;;;;;;5106780;28;20051;-85
2022/11/20 04:10:34;;;;;;;3.60;1.50;;;-2.40;93.20;;;;;;5080512;28;20650;-84
2022/11/20 04:13:40;;;;;;;4.00;1.23;;;-2.50;93.10;;;;;;5097823;28;20438;-85
2022/11/20 04:17:43;;;;;;;;;;;;;;;;;;;;;
2022/11/20 04:20:35;;;;;;;3.20;1.30;;;-2.50;93.20;;;;;;5025627;28;20128;-84
2022/11/20 04:23:54;;;;;;;3.50;1.37;;;-2.50;93.20;;;;;;5040846;28;20400;-85
2022/11/20 04:27:07;;;;;;;3.33;1.13;;;-2.60;93.20;;;;;;5034377;28;20082;-84
2022/11/20 04:30:46;;;;;;;;;;;;;;;;;;;;;
2022/11/20 04:34:10;;;;;;;3.57;1.03;;;-2.60;93.20;;;;;;5044671;28;20156;-84
2022/11/20 04:45:23;;;;;;;2.87;1.23;;;-2.60;93.20;;;;;;4987857;28;20034;-84
2022/11/20 04:48:18;;;;;;;3.67;1.30;;;-2.70;93.20;;;;;;4932472;28;20501;-84
2022/11/20 04:51:06;;;;;;;3.30;1.13;;;-2.70;93.20;;;;;;4967990;28;20057;-84
2022/11/20 04:53:59;;;;;;;3.90;1.40;;;-2.70;93.20;;;;;;5002613;28;20052;-85
2022/11/20 04:57:28;;;;;;;3.60;1.20;;;-2.70;93.30;;;;;;5030823;28;20080;-84
2022/11/20 05:00:17;;;;;;;3.00;1.20;;;-2.70;93.30;;;;;;5009967;28;20052;-85
2022/11/20 05:03:01;;;;;;;1.57;0.80;;;-2.70;93.40;;;;;;5022792;28;20533;-82
2022/11/20 05:05:51;;;;;;;2.70;0.97;;;-2.70;93.40;;;;;;5017626;28;20042;-83
2022/11/20 05:08:48;;;;;;;3.07;1.20;;;-2.70;93.40;;;;;;5025685;28;20103;-84
2022/11/20 05:11:38;;;;;;;4.17;1.43;;;-2.70;93.40;;;;;;5022727;28;20045;-84
2022/11/20 05:14:23;;;;;;;2.53;1.20;;;-2.70;93.40;;;;;;5047566;28;20147;-84
2022/11/20 05:21:37;;;;;;;4.60;1.40;;;-2.70;93.50;;;;;;5080434;28;20047;-84
2022/11/20 05:24:21;;;;;;;3.40;1.20;;;-2.70;93.40;;;;;;5053742;28;20040;-84
2022/11/20 05:27:00;;;;;;;3.30;1.40;;;-2.70;93.40;;;;;;5048653;28;20036;-84
2022/11/20 05:29:48;;;;;;;2.88;1.15;;;-2.70;93.40;;;;;;5035452;28;20052;-84
2022/11/20 05:33:37;;;;;;;4.45;1.42;;;-2.70;93.50;;;;;;5001097;28;20149;-84
2022/11/20 05:36:37;;;;;;;3.90;1.30;;;-2.80;93.40;;;;;;5000189;28;20450;-84
2022/11/20 05:39:12;;;;;;;3.90;1.37;;;-2.80;93.40;;;;;;4981604;28;20051;-84
2022/11/20 05:41:39;;;;;;;4.10;1.10;;;-2.80;93.40;;;;;;4980853;28;20073;-83
2022/11/20 05:44:15;;;;;;;4.53;1.80;;;-2.80;93.40;;;;;;4977804;28;20050;-84
2022/11/20 05:46:48;;;;;;;3.60;1.27;;;-2.90;93.40;;;;;;4996858;28;20053;-84
2022/11/20 05:49:34;;;;;;;3.77;1.30;;;-2.90;93.50;;;;;;4976162;28;20254;-84
2022/11/20 05:52:07;;;;;;;3.40;1.53;;;-2.90;93.50;;;;;;4994927;28;20044;-84
2022/11/20 05:54:36;;;;;;;3.67;1.30;;;-2.90;93.60;;;;;;5052407;28;20119;-83
2022/11/20 05:57:06;;;;;;;3.40;1.17;;;-2.90;93.60;;;;;;5048838;28;20124;-83
2022/11/20 05:59:34;;;;;;;3.67;1.27;;;-2.90;93.50;;;;;;5024832;28;20045;-84
2022/11/20 06:02:13;;;;;;;3.57;1.40;;;-2.90;93.50;;;;;;5063919;28;20051;-83
2022/11/20 06:04:44;;;;;;;2.77;1.10;;;-2.90;93.60;;;;;;5091434;28;20044;-84
2022/11/20 06:07:12;;;;;;;4.13;1.90;;;-2.90;93.60;;;;;;5106452;28;20050;-85
2022/11/20 06:09:43;;;;;;;3.40;1.37;;;-2.90;93.60;;;;;;5076017;28;20054;-84
2022/11/20 06:12:13;;;;;;;3.87;1.70;;;-2.90;93.60;;;;;;5096265;28;20044;-84
2022/11/20 06:14:44;;;;;;;4.30;1.47;;;-2.90;93.60;;;;;;5100094;28;20471;-84
2022/11/20 06:17:14;;;;;;;5.30;1.87;;;-2.90;93.60;;;;;;5093642;28;20044;-85
2022/11/20 06:19:44;;;;;;;4.50;1.40;;;-2.90;93.60;;;;;;5096572;28;20035;-84
2022/11/20 06:22:14;;;;;;;4.33;2.00;;;-2.90;93.60;;;;;;5113836;28;20044;-83
2022/11/20 06:24:41;;;;;;;4.33;1.70;;;-2.90;93.60;;;;;;5079303;28;20101;-84
2022/11/20 06:27:08;;;;;;;3.93;1.70;;;-3.00;93.60;;;;;;5105908;28;20040;-83
2022/11/20 06:29:44;;;;;;;3.95;1.50;;;-3.00;93.60;;;;;;5082891;28;20424;-83
2022/11/20 06:32:16;;;;;;;3.70;1.47;;;-3.00;93.60;;;;;;5082270;28;20040;-83
2022/11/20 06:34:45;;;;;;;4.17;1.40;;;-3.00;93.60;;;;;;5077412;28;20098;-84
2022/11/20 06:37:31;;;;;;;4.10;1.50;;;-3.00;93.70;;;;;;5089448;28;20123;-84
2022/11/20 06:40:02;;;;;;;;;;;-3.00;93.70;;;;;;5078986;28;20044;-84
2022/11/20 06:42:29;;;;;;;6.10;2.10;;;-3.10;93.70;;;;;;5085490;28;20355;-84
2022/11/20 06:44:59;;;;;;;3.67;1.53;;;-3.10;93.70;;;;;;5095882;28;20078;-84
2022/11/20 06:47:30;;;;;;;5.20;2.10;;;-3.10;93.60;;;;;;5060077;28;20147;-85
2022/11/20 06:50:03;;;;;;;3.80;1.43;;;-3.10;93.60;;;;;;5091199;28;20043;-85
2022/11/20 06:52:31;;;;;;;3.37;1.60;;;-3.10;93.60;;;;;;5095433;28;20093;-85
2022/11/20 06:55:11;;;;;;;4.17;1.50;;;-3.10;93.60;;;;;;5096832;28;20044;-84
2022/11/20 06:57:40;;;;;;;4.50;1.30;;;-3.10;93.60;;;;;;5107517;28;20048;-84
2022/11/20 07:00:10;;;;;;;5.20;1.90;;;-3.10;93.70;;;;;;5085990;28;20074;-84
2022/11/20 07:02:43;;;;;;;3.67;1.67;;;-3.00;93.70;;;;;;5098597;27;20044;-84
2022/11/20 07:05:11;;;;;;;4.23;1.70;;;-3.10;93.70;;;;;;5085967;28;20051;-84
2022/11/20 07:07:42;;;;;;;3.83;1.40;;;-3.10;93.60;;;;;;5088730;28;20040;-84
2022/11/20 07:10:18;;;;;;;4.37;1.57;;;-3.10;93.60;;;;;;5091092;28;20139;-83
2022/11/20 07:17:09;;;;;;;4.10;1.40;;;-3.00;93.60;;;;;;5093071;28;20044;-83
2022/11/20 07:19:54;;;;;;;4.80;2.20;;;-3.00;93.60;;;;;;5095130;28;20044;-84
2022/11/20 07:22:25;;;;;;;5.47;2.37;;;-3.00;93.60;;;;;;5090597;28;20044;-84
2022/11/20 07:28:15;;;;;;;4.03;1.80;;;-3.00;93.60;;;;;;5092045;28;20476;-84
2022/11/20 07:30:52;;;;;;;4.50;1.60;;;-2.90;93.60;;;;;;5078043;28;20388;-83
2022/11/20 07:33:33;;;;;;;4.37;1.80;;;-2.90;93.60;;;;;;5079431;28;20052;-84
2022/11/20 07:36:16;;;;;;;4.03;1.33;;;-2.90;93.60;;;;;;5084851;28;20054;-85
2022/11/20 07:38:55;;;;;;;4.60;1.70;;;-2.90;93.60;;;;;;5081741;28;20051;-84
2022/11/20 07:41:31;;;;;;;4.63;1.40;;;-2.90;93.60;;;;;;5086892;28;20100;-83
2022/11/20 07:44:17;;;;;;;4.03;1.97;;;-2.80;93.60;;;;;;5091286;28;20044;-84
2022/11/20 07:46:57;;;;;;;4.37;1.63;;;-2.80;93.60;;;;;;5086906;28;20043;-83
2022/11/20 07:49:29;;;;;;;4.00;1.87;;;-2.80;93.50;;;;;;5104844;28;20054;-84
2022/11/20 07:52:11;;;;;;;4.57;1.77;;;-2.70;93.50;;;;;;5092263;28;20056;-84
2022/11/20 07:55:05;;;;;;;3.80;1.80;;;-2.60;93.50;;;;;;5091750;28;20039;-82
2022/11/20 07:57:32;;;;;;;4.77;1.77;;;-2.60;93.50;;;;;;5096046;28;20060;-84
2022/11/20 08:00:03;;;;;;;4.27;1.70;;;-2.60;93.40;;;;;;5091994;28;20109;-83
2022/11/20 08:02:41;;;;;;;5.03;1.70;;;-2.50;93.50;;;;;;5095158;28;20075;-81
2022/11/20 08:05:09;;;;;;;3.90;1.73;;;-2.50;93.40;;;;;;5085574;28;20048;-82
2022/11/20 08:07:41;;;;;;;5.60;2.47;;;-2.40;93.50;;;;;;5088731;28;20047;-82
2022/11/20 08:10:11;;;;;;;5.47;2.15;;;-2.40;93.40;;;;;;5101671;28;20135;-80
2022/11/20 08:15:36;;;;;;;6.70;2.50;;;-2.30;93.30;;;;;;5091084;28;20113;-80
2022/11/20 08:18:04;;;;;;;6.93;3.03;;;-2.20;93.30;;;;;;5089015;28;20040;-79
2022/11/20 08:20:51;;;;;;;7.27;3.47;;;-2.20;93.30;;;;;;5105161;28;20082;-80
2022/11/20 08:23:18;;;;;;;6.40;2.40;;;-2.10;93.30;;;;;;5074969;28;20060;-80
2022/11/20 08:25:49;;;;;;;6.43;3.27;;;-2.10;93.20;;;;;;5074424;28;20051;-82
2022/11/20 08:28:16;;;;;;;6.73;3.53;;;-2.00;93.20;;;;;;5089226;28;20047;-79
2022/11/20 08:30:49;;;;;;;8.02;3.40;;;-1.90;93.20;;;;;;5081843;28;20048;-80
2022/11/20 08:33:17;;;;;;;6.53;3.10;;;-1.90;93.20;;;;;;5105062;28;20048;-80
2022/11/20 08:35:45;;;;;;;6.70;3.23;;;-1.80;93.10;;;;;;5064080;28;20514;-80
2022/11/20 08:38:12;;;;;;;6.13;2.30;;;-1.80;93.10;;;;;;5085848;28;20039;-80
2022/11/20 08:40:40;;;;;;;6.60;3.07;;;-1.70;93.10;;;;;;5086407;28;20057;-78
2022/11/20 08:43:07;;;;;;;4.63;2.70;;;-1.60;93.00;;;;;;5095575;28;20040;-79
2022/11/20 08:45:34;;;;;;;6.83;2.70;;;-1.60;93.00;;;;;;5078523;28;20048;-80
2022/11/20 08:48:02;;;;;;;6.83;2.77;;;-1.50;93.00;;;;;;5090680;28;20047;-79
2022/11/20 08:50:31;;;;;;;5.77;2.13;;;-1.50;92.90;;;;;;5061638;28;20455;-80
2022/11/20 08:53:03;;;;;;;4.80;2.40;;;-1.40;92.90;;;;;;5096523;28;20039;-80
2022/11/20 08:55:30;;;;;;;4.93;2.73;;;-1.40;92.90;;;;;;5098234;28;20180;-80
2022/11/20 08:57:57;;;;;;;5.40;2.47;;;-1.30;92.90;;;;;;5108682;28;20071;-80
2022/11/20 09:00:27;;;;;;;4.67;2.10;;;-1.20;92.90;;;;;;5077849;28;20036;-80
2022/11/20 09:02:54;;;;;;;4.67;1.90;;;-1.20;92.90;;;;;;5091831;28;20131;-81
2022/11/20 09:05:21;;;;;;;5.80;2.63;;;-1.10;93.10;;;;;;5089008;28;20509;-80
2022/11/20 09:07:48;;;;;;;5.93;2.70;;;-1.00;92.80;;;;;;5081278;28;20043;-80
2022/11/20 09:10:15;;;;;;;6.90;2.90;;;-0.90;92.70;;;;;;5077850;28;20047;-82
2022/11/20 09:12:55;;;;;;;6.37;2.90;;;-0.80;92.60;;;;;;5093533;28;20055;-80
2022/11/20 09:15:23;;;;;;;7.30;3.10;;;-0.70;92.60;;;;;;5104808;28;20055;-80
2022/11/20 09:18:00;;;;;;;7.10;3.03;;;-0.70;92.50;;;;;;5108530;28;20051;-79
2022/11/20 09:20:29;;;;;;;7.97;3.60;;;-0.60;92.50;;;;;;5104020;28;20052;-80
2022/11/20 09:22:57;;;;;;;6.20;3.07;;;-0.50;92.50;;;;;;5083470;28;20042;-81
2022/11/20 09:25:33;;;;;;;7.20;3.60;;;-0.40;92.40;;;;;;5108370;28;20119;-86
2022/11/20 09:28:00;;;;;;;5.03;2.23;;;-0.30;92.40;;;;;;5091332;28;20123;-81
2022/11/20 09:30:27;;;;;;;4.97;2.00;;;-0.20;92.40;;;;;;5069877;28;20068;-80
2022/11/20 09:32:54;;;;;;;6.07;2.50;;;-0.20;92.30;;;;;;5100715;28;20483;-79
2022/11/20 09:35:24;;;;;;;7.93;3.00;;;-0.10;92.30;;;;;;5090517;28;20147;-80
2022/11/20 09:37:51;;;;;;;3.93;1.90;;;0.00;92.30;;;;;;5077407;28;20438;-80
2022/11/20 09:40:28;;;;;;;5.20;2.00;;;0.00;92.30;;;;;;5093296;28;20040;-82
2022/11/20 09:43:17;;;;;;;6.00;3.47;;;0.10;92.20;;;;;;5089306;28;20092;-82
2022/11/20 09:46:22;;;;;;;6.30;2.97;;;0.20;92.10;;;;;;5114022;28;20055;-81
2022/11/20 09:49:11;;;;;;;7.57;3.60;;;0.20;92.10;;;;;;5090292;28;20044;-81
2022/11/20 09:51:57;;;;;;;6.37;3.10;;;0.30;92.10;;;;;;5097062;28;20048;-81
2022/11/20 09:54:37;;;;;;;5.33;2.10;;;0.40;92.10;;;;;;5109664;28;20054;-81
2022/11/20 09:57:21;;;;;;;4.67;2.40;;;0.40;92.10;;;;;;5082110;28;20070;-81
2022/11/20 10:00:03;;;;;;;6.17;2.90;;;0.50;92.20;;;;;;5086076;28;20093;-81
2022/11/20 10:02:47;;;;;;;5.43;2.57;;;0.50;92.10;;;;;;5091727;28;20046;-81
2022/11/20 10:05:22;;;;;;;5.70;2.63;;;0.60;92.10;;;;;;5097306;28;20165;-80
2022/11/20 10:08:23;;;;;;;6.60;2.97;;;0.70;92.10;;;;;;5096485;28;20039;-81
2022/11/20 10:11:11;;;;;;;5.57;2.50;;;0.80;92.10;;;;;;5099052;28;20051;-79
2022/11/20 10:14:03;;;;;;;6.10;3.20;;;0.80;92.10;;;;;;5095612;28;20201;-81
2022/11/20 10:16:43;;;;;;;7.50;3.03;;;0.90;92.10;;;;;;5094564;28;20119;-82
2022/11/20 10:19:35;;;;;;;6.57;3.13;;;1.00;92.10;;;;;;5089439;28;20158;-80
2022/11/20 10:22:27;;;;;;;4.77;1.90;;;1.00;92.10;;;;;;5081244;28;20146;-80
2022/11/20 10:25:03;;;;;;;6.57;3.10;;;1.10;92.10;;;;;;5090091;28;20134;-81
2022/11/20 10:28:01;;;;;;;6.43;3.07;;;1.10;92.00;;;;;;5101631;28;20044;-80
2022/11/20 10:30:30;;;;;;;5.17;2.70;;;1.20;92.00;;;;;;5087298;28;20093;-80
2022/11/20 10:33:05;;;;;;;5.73;2.67;;;1.20;92.00;;;;;;5072630;28;20048;-80
2022/11/20 10:35:44;;;;;;;8.13;3.27;;;1.30;92.30;;;;;;5075887;28;20503;-80
2022/11/20 10:38:38;;;;;;;6.43;3.10;;;1.40;92.10;;;;;;5094343;28;20047;-80
2022/11/20 10:41:24;;;;;;;7.57;3.43;;;1.40;92.10;;;;;;5077255;28;20525;-79
2022/11/20 10:44:11;;;;;;;6.50;2.97;;;1.40;92.10;;;;;;5095003;28;20044;-80
2022/11/20 10:46:48;;;;;;;5.83;2.43;;;1.50;92.00;;;;;;5094932;28;20433;-79
2022/11/20 10:49:17;;;;;;;7.53;3.40;;;1.50;92.00;;;;;;5084348;28;20071;-79
2022/11/20 10:51:48;;;;;;;5.00;2.07;;;1.50;92.00;;;;;;5093409;28;20039;-78
2022/11/20 10:54:27;;;;;;;4.17;1.90;;;1.50;92.00;;;;;;5088536;28;20052;-79
2022/11/20 10:57:02;;;;;;;5.67;2.57;;;1.60;92.10;;;;;;5095673;28;20118;-80
2022/11/20 10:59:44;;;;;;;5.90;2.97;;;1.60;92.00;;;;;;5091255;28;20048;-81
2022/11/20 11:02:25;;;;;;;5.68;2.85;;;1.60;92.00;;;;;;5092348;28;20085;-80
2022/11/20 11:04:53;;;;;;;6.00;2.75;;;1.60;92.00;;;;;;5067533;28;20043;-82
2022/11/20 11:07:36;;;;;;;6.00;2.63;;;1.60;92.00;;;;;;5094137;28;20044;-80
2022/11/20 11:10:17;;;;;;;6.47;2.40;;;1.70;92.10;;;;;;5087761;28;20040;-82
2022/11/20 11:12:47;;;;;;;5.97;2.67;;;1.70;92.00;;;;;;5094383;28;20044;-82
2022/11/20 11:15:38;;;;;;;6.60;2.53;;;1.80;92.00;;;;;;5079487;28;20142;-80
2022/11/20 11:18:09;;;;;;;6.07;3.43;;;1.90;92.00;;;;;;5075566;28;20130;-79
2022/11/20 11:20:37;;;;;;;6.80;3.30;;;2.00;92.00;;;;;;5093685;28;20388;-79
2022/11/20 11:23:04;;;;;;;7.70;3.30;;;2.00;91.90;;;;;;5106054;28;20044;-81
2022/11/20 11:25:36;;;;;;;7.70;3.85;;;2.10;91.90;;;;;;5081339;28;20512;-82
2022/11/20 11:28:19;;;;;;;7.73;3.50;;;2.10;91.90;;;;;;5106119;28;20127;-81
2022/11/20 11:30:50;;;;;;;8.60;4.25;;;2.20;91.90;;;;;;5099576;28;20044;-83
2022/11/20 11:33:26;;;;;;;8.90;5.30;;;2.20;91.90;;;;;;5076385;28;20043;-82
2022/11/20 11:36:17;;;;;;;7.80;4.57;;;2.30;91.90;;;;;;5101435;28;20095;-82
2022/11/20 11:38:45;;;;;;;9.13;4.97;;;2.40;91.90;;;;;;5070337;28;20044;-81
2022/11/20 11:41:17;;;;;;;10.32;4.90;;;2.40;91.90;;;;;;5104406;28;20077;-79
2022/11/20 11:47:04;;;;;;;10.30;5.68;;;2.50;91.90;;;;;;5100092;28;20144;-80
2022/11/20 11:49:31;;;;;;;8.87;4.60;;;2.60;91.80;;;;;;5102532;28;20086;-80
2022/11/20 11:52:07;;;;;;;8.77;5.20;;;2.60;91.80;;;;;;5077660;28;20449;-80
2022/11/20 11:54:54;;;;;;;7.22;4.05;;;2.60;91.80;;;;;;5090928;28;20039;-81
2022/11/20 11:57:37;;;;;;;7.60;4.68;;;2.70;91.80;;;;;;5081159;28;20143;-81
2022/11/20 12:00:10;;;;;;;9.27;4.40;;;2.70;91.80;;;;;;5102663;28;20086;-80
2022/11/20 12:02:42;;;;;;;9.32;4.30;;;2.60;91.90;;;;;;5105492;28;20051;-81
2022/11/20 12:05:27;;;;;;;8.00;3.92;;;2.60;91.90;;;;;;5091951;28;20468;-82
2022/11/20 12:08:06;;;;;;;11.03;6.37;;;2.70;91.90;;;;;;5088381;28;20044;-82
2022/11/20 12:11:03;;;;;;;9.27;5.05;;;2.70;92.00;;;;;;5101103;28;20046;-82
2022/11/20 12:13:55;;;;;;;7.07;4.07;;;2.60;92.00;;;;;;5091945;28;20058;-81
2022/11/20 12:16:25;;;;;;;7.53;4.30;;;2.60;92.00;;;;;;5097991;28;20398;-81
2022/11/20 12:18:52;;;;;;;7.10;3.83;;;2.60;92.00;;;;;;5072848;28;20043;-79
2022/11/20 12:21:30;;;;;;;7.85;4.38;;;2.60;92.10;;;;;;5084892;28;20044;-81
2022/11/20 12:24:11;;;;;;;7.20;4.20;;;2.60;92.10;;;;;;5096021;28;20040;-86
2022/11/20 12:27:09;;;;;;;8.18;4.72;;;2.60;92.10;;;;;;5109282;28;20036;-80
2022/11/20 12:30:13;;;;;;;8.68;5.40;;;2.60;92.10;;;;;;5106917;28;20491;-86
2022/11/20 12:32:40;;;;;;;7.23;4.17;;;2.50;92.10;;;;;;5103379;28;20063;-84
2022/11/20 12:35:22;;;;;;;8.80;5.17;;;2.50;92.20;;;;;;5082439;28;20492;-84
2022/11/20 12:38:11;;;;;;;8.57;4.80;;;2.60;92.20;;;;;;5099106;28;20067;-83
2022/11/20 12:40:59;;;;;;;8.80;4.47;;;2.60;92.20;;;;;;5107922;28;20078;-82
2022/11/20 12:46:28;;;;;;;19.93;12.37;;;2.70;92.20;;;;;;5102256;28;20044;-83
2022/11/20 12:49:04;;;;;;;;;;;2.70;92.20;;;;;;5084902;28;20123;-84
2022/11/20 12:52:20;;;;;;;14.07;7.80;;;2.70;92.20;;;;;;5085742;28;19920;-81
2022/11/20 12:55:13;;;;;;;10.93;6.33;;;2.80;92.20;;;;;;5025776;28;20040;-83
2022/11/20 12:58:03;;;;;;;9.10;5.80;;;2.80;92.20;;;;;;5109259;28;20040;-82
2022/11/20 13:00:34;;;;;;;8.45;4.90;;;2.80;92.10;;;;;;5088199;28;20044;-83
2022/11/20 13:03:36;;;;;;;9.52;5.38;;;2.90;92.10;;;;;;5088442;28;20143;-82
2022/11/20 13:06:15;;;;;;;8.98;4.80;;;3.00;92.20;;;;;;5083894;28;20445;-78
2022/11/20 13:08:55;;;;;;;8.05;4.97;;;3.00;92.20;;;;;;5098462;28;20458;-78
2022/11/20 13:11:41;;;;;;;9.75;4.47;;;3.00;92.20;;;;;;5094921;28;20102;-84
2022/11/20 13:14:45;;;;;;;9.85;4.55;;;2.90;92.20;;;;;;5108054;28;20051;-84
2022/11/20 13:17:31;;;;;;;9.20;4.90;;;2.90;92.30;;;;;;5106002;28;20134;-89
2022/11/20 13:19:59;;;;;;;8.35;4.55;;;2.90;92.30;;;;;;5101654;28;20127;-85
2022/11/20 13:22:42;;;;;;;9.55;5.15;;;2.90;92.40;;;;;;5101002;28;20134;-83
2022/11/20 13:25:10;;;;;;;9.90;5.40;;;2.90;92.40;;;;;;5075234;28;20425;-82
2022/11/20 13:27:48;;;;;;;;;;;2.80;92.40;;;;;;5091888;28;20044;-82
2022/11/20 13:30:18;;;;;;;7.45;4.00;;;2.80;92.50;;;;;;5091671;28;20023;-80
2022/11/20 13:32:56;;;;;;;9.68;4.82;;;2.80;92.50;;;;;;5100151;28;20052;-82
2022/11/20 13:35:26;;;;;;;8.23;4.60;;;2.80;92.50;;;;;;5077679;28;20155;-81
2022/11/20 13:38:19;;;;;;;8.23;4.50;;;2.80;92.50;;;;;;5104028;28;20526;-80
2022/11/20 13:40:57;;;;;;;9.57;4.78;;;2.90;92.50;;;;;;5082986;28;20475;-80
2022/11/20 13:43:41;;;;;;;9.60;4.78;;;2.90;92.50;;;;;;5093652;28;20046;-81
2022/11/20 13:46:09;;;;;;;13.27;7.13;;;2.90;92.50;;;;;;5071670;28;20552;-79
2022/11/20 13:48:45;;;;;;;10.30;5.43;;;2.90;92.60;;;;;;5100053;28;20080;-84
2022/11/20 13:51:38;;;;;;;13.75;6.65;;;3.00;92.60;;;;;;5103845;28;20044;-84
2022/11/20 13:54:33;;;;;;;12.38;6.05;;;3.00;92.70;;;;;;5103808;28;20040;-79
2022/11/20 13:57:06;;;;;;;10.73;4.90;;;3.00;92.70;;;;;;5097795;28;20540;-80
2022/11/20 13:59:33;;;;;;;11.73;5.95;;;3.00;92.70;;;;;;5101789;28;20105;-79
2022/11/20 14:02:01;;;;;;;14.50;7.78;;;3.00;92.70;;;;;;5076896;28;20044;-78
2022/11/20 14:04:35;;;;;;;10.80;6.20;;;3.00;92.70;;;;;;5077526;28;20540;-79
2022/11/20 14:07:08;;;;;;;10.32;6.45;;;3.00;92.70;;;;;;5083184;28;20040;-79
2022/11/20 14:09:36;;;;;;;21.65;12.10;;;3.00;92.80;;;;;;5109443;28;20096;-79
2022/11/20 14:12:13;;;;;;;14.65;8.38;;;3.00;92.80;;;;;;5078607;28;20242;-78
2022/11/20 14:14:50;;;;;;;16.02;8.35;;;3.00;92.90;;;;;;5090946;28;20135;-78
2022/11/20 14:17:34;;;;;;;13.30;7.47;;;3.00;92.90;;;;;;5096533;28;20124;-78
2022/11/20 14:20:05;;;;;;;17.15;10.07;;;3.00;93.00;;;;;;5104704;28;20054;-77
2022/11/20 14:22:33;;;;;;;16.83;8.57;;;3.00;93.00;;;;;;5089299;28;20058;-81
2022/11/20 14:25:18;;;;;;;15.40;7.90;;;3.00;93.00;;;;;;5072921;28;20043;-77
2022/11/20 14:27:51;;;;;;;14.65;8.57;;;3.00;93.00;;;;;;5099882;28;20115;-80
2022/11/20 14:30:24;;;;;;;11.80;7.32;;;2.90;93.10;;;;;;5089814;28;20381;-76
2022/11/20 14:32:53;;;;;;;;;;;2.90;93.10;;;;;;5089523;28;20535;-79
2022/11/20 14:35:34;;;;;;;12.05;6.80;;;2.90;93.20;;;;;;5100729;28;19959;-80
2022/11/20 14:38:02;;;;;;;12.50;7.57;;;2.90;93.10;;;;;;5100929;28;20071;-81
2022/11/20 14:40:32;;;;;;;12.45;6.63;;;2.90;93.30;;;;;;5084549;28;20044;-80
2022/11/20 14:42:59;;;;;;;15.52;7.90;;;2.90;93.20;;;;;;5108435;28;20040;-81
2022/11/20 14:45:27;;;;;;;12.65;6.57;;;2.90;93.50;;;;;;5083920;28;20062;-82